sensor_id;sensor_type;location;lat;lon;timestamp;pressure;altitude;pressure_sealevel;temperature;humidity
44872;BME280;30602;51.060;17.226;2022-12-18T00:00:41;103246.05;;;-5.22;90.52
44872;BME280;30602;51.060;17.226;2022-12-18T00:03:54;103265.09;;;-5.04;90.47
44872;BME280;30602;51.060;17.226;2022-12-18T00:07:39;103262.28;;;-5.05;90.46
44872;BME280;30602;51.060;17.226;2022-12-18T00:10:53;103270.30;;;-5.04;90.20
44872;BME280;30602;51.060;17.226;2022-12-18T00:14:13;103272.48;;;-5.14;90.50
44872;BME280;30602;51.060;17.226;2022-12-18T00:17:37;103280.03;;;-5.12;90.76
44872;BME280;30602;51.060;17.226;2022-12-18T00:20:59;103285.39;;;-5.17;90.99
44872;BME280;30602;51.060;17.226;2022-12-18T00:24:45;103284.52;;;-5.14;90.91
44872;BME280;30602;51.060;17.226;2022-12-18T00:27:59;103286.23;;;-5.25;91.17
44872;BME280;30602;51.060;17.226;2022-12-18T00:31:20;103292.56;;;-5.11;90.75
44872;BME280;30602;51.060;17.226;2022-12-18T00:34:47;103296.03;;;-5.12;90.64
44872;BME280;30602;51.060;17.226;2022-12-18T00:38:19;103292.70;;;-5.06;90.64
44872;BME280;30602;51.060;17.226;2022-12-18T00:41:56;103303.73;;;-5.09;91.19
44872;BME280;30602;51.060;17.226;2022-12-18T00:45:17;103309.80;;;-5.06;91.41
44872;BME280;30602;51.060;17.226;2022-12-18T00:48:48;103317.81;;;-5.13;91.04
44872;BME280;30602;51.060;17.226;2022-12-18T00:52:11;103326.59;;;-5.02;91.30
44872;BME280;30602;51.060;17.226;2022-12-18T00:55:19;103331.09;;;-5.02;91.22
44872;BME280;30602;51.060;17.226;2022-12-18T00:58:58;103338.24;;;-5.04;91.31
44872;BME280;30602;51.060;17.226;2022-12-18T01:02:43;103341.84;;;-5.07;90.73
44872;BME280;30602;51.060;17.226;2022-12-18T01:06:28;103345.79;;;-5.08;90.98
44872;BME280;30602;51.060;17.226;2022-12-18T01:10:30;103351.04;;;-5.12;90.81
44872;BME280;30602;51.060;17.226;2022-12-18T01:14:04;103355.93;;;-5.12;90.69
44872;BME280;30602;51.060;17.226;2022-12-18T01:17:14;103357.27;;;-5.11;90.92
44872;BME280;30602;51.060;17.226;2022-12-18T01:21:08;103358.27;;;-5.02;91.27
44872;BME280;30602;51.060;17.226;2022-12-18T01:24:40;103364.10;;;-5.13;91.07
44872;BME280;30602;51.060;17.226;2022-12-18T01:27:53;103349.45;;;-5.27;90.96
44872;BME280;30602;51.060;17.226;2022-12-18T01:31:22;103369.62;;;-5.17;91.39
44872;BME280;30602;51.060;17.226;2022-12-18T01:34:30;103373.30;;;-5.06;91.41
44872;BME280;30602;51.060;17.226;2022-12-18T01:37:41;103376.80;;;-5.12;91.64
44872;BME280;30602;51.060;17.226;2022-12-18T01:41:00;103379.66;;;-5.21;91.64
44872;BME280;30602;51.060;17.226;2022-12-18T01:48:39;103384.50;;;-5.09;91.98
44872;BME280;30602;51.060;17.226;2022-12-18T01:56:34;103380.40;;;-5.10;91.67
44872;BME280;30602;51.060;17.226;2022-12-18T01:59:51;103384.53;;;-5.21;91.92
44872;BME280;30602;51.060;17.226;2022-12-18T02:03:20;103391.92;;;-5.23;92.13
44872;BME280;30602;51.060;17.226;2022-12-18T02:17:47;103389.94;;;-5.11;92.21
44872;BME280;30602;51.060;17.226;2022-12-18T02:21:51;103394.97;;;-5.09;92.46
44872;BME280;30602;51.060;17.226;2022-12-18T02:32:52;103411.83;;;-5.07;92.05
44872;BME280;30602;51.060;17.226;2022-12-18T02:36:26;103394.99;;;-5.19;92.04
44872;BME280;30602;51.060;17.226;2022-12-18T02:40:00;103414.99;;;-5.11;91.79
44872;BME280;30602;51.060;17.226;2022-12-18T02:43:31;103425.30;;;-5.19;92.58
44872;BME280;30602;51.060;17.226;2022-12-18T02:47:11;103427.89;;;-5.14;92.92
44872;BME280;30602;51.060;17.226;2022-12-18T02:50:31;103426.34;;;-5.08;92.54
44872;BME280;30602;51.060;17.226;2022-12-18T03:01:43;103431.59;;;-4.99;92.18
44872;BME280;30602;51.060;17.226;2022-12-18T03:05:03;103434.47;;;-5.00;92.45
44872;BME280;30602;51.060;17.226;2022-12-18T03:08:28;103428.55;;;-5.08;92.82
44872;BME280;30602;51.060;17.226;2022-12-18T03:11:40;103433.36;;;-5.03;92.82
44872;BME280;30602;51.060;17.226;2022-12-18T03:15:35;103418.96;;;-5.12;93.21
44872;BME280;30602;51.060;17.226;2022-12-18T03:19:16;103429.38;;;-4.96;93.09
44872;BME280;30602;51.060;17.226;2022-12-18T03:26:25;103447.96;;;-4.85;92.81
44872;BME280;30602;51.060;17.226;2022-12-18T03:30:14;103446.11;;;-4.80;92.28
44872;BME280;30602;51.060;17.226;2022-12-18T03:33:46;103438.77;;;-4.88;91.71
44872;BME280;30602;51.060;17.226;2022-12-18T03:37:27;103445.72;;;-4.96;91.64
44872;BME280;30602;51.060;17.226;2022-12-18T03:48:35;103446.74;;;-4.85;91.75
44872;BME280;30602;51.060;17.226;2022-12-18T03:52:02;103441.28;;;-4.87;91.72
44872;BME280;30602;51.060;17.226;2022-12-18T03:55:13;103451.91;;;-4.82;91.52
44872;BME280;30602;51.060;17.226;2022-12-18T03:59:03;103456.49;;;-4.86;91.94
44872;BME280;30602;51.060;17.226;2022-12-18T04:02:32;103459.64;;;-4.80;92.12
44872;BME280;30602;51.060;17.226;2022-12-18T04:06:15;103460.07;;;-4.78;92.13
44872;BME280;30602;51.060;17.226;2022-12-18T04:09:46;103460.59;;;-4.73;91.35
44872;BME280;30602;51.060;17.226;2022-12-18T04:13:36;103454.76;;;-4.85;91.18
44872;BME280;30602;51.060;17.226;2022-12-18T04:17:37;103470.73;;;-4.83;90.62
44872;BME280;30602;51.060;17.226;2022-12-18T04:21:04;103475.93;;;-4.98;91.32
44872;BME280;30602;51.060;17.226;2022-12-18T04:24:34;103483.61;;;-4.95;91.60
44872;BME280;30602;51.060;17.226;2022-12-18T04:28:15;103493.01;;;-4.96;92.04
44872;BME280;30602;51.060;17.226;2022-12-18T04:32:00;103486.57;;;-4.87;91.07
44872;BME280;30602;51.060;17.226;2022-12-18T04:35:34;103496.78;;;-4.77;91.33
44872;BME280;30602;51.060;17.226;2022-12-18T04:39:06;103502.59;;;-4.85;91.19
44872;BME280;30602;51.060;17.226;2022-12-18T04:42:16;103512.35;;;-4.78;91.08
44872;BME280;30602;51.060;17.226;2022-12-18T04:46:04;103517.30;;;-4.81;90.63
44872;BME280;30602;51.060;17.226;2022-12-18T04:49:16;103521.14;;;-4.90;90.51
44872;BME280;30602;51.060;17.226;2022-12-18T04:52:51;103527.61;;;-4.81;90.06
44872;BME280;30602;51.060;17.226;2022-12-18T04:56:27;103524.83;;;-4.78;90.13
44872;BME280;30602;51.060;17.226;2022-12-18T04:59:57;103528.66;;;-4.85;90.42
44872;BME280;30602;51.060;17.226;2022-12-18T05:03:17;103537.46;;;-4.80;90.05
44872;BME280;30602;51.060;17.226;2022-12-18T05:06:46;103535.30;;;-4.84;90.11
44872;BME280;30602;51.060;17.226;2022-12-18T05:09:58;103526.78;;;-4.93;90.07
44872;BME280;30602;51.060;17.226;2022-12-18T05:13:35;103512.35;;;-5.05;89.70
44872;BME280;30602;51.060;17.226;2022-12-18T05:17:29;103535.53;;;-5.01;90.38
44872;BME280;30602;51.060;17.226;2022-12-18T05:20:36;103530.73;;;-4.90;90.05
44872;BME280;30602;51.060;17.226;2022-12-18T05:23:58;103516.14;;;-5.06;89.85
44872;BME280;30602;51.060;17.226;2022-12-18T05:27:31;103542.23;;;-4.95;89.85
44872;BME280;30602;51.060;17.226;2022-12-18T05:31:18;103546.59;;;-4.93;89.75
44872;BME280;30602;51.060;17.226;2022-12-18T05:34:32;103540.80;;;-4.94;89.53
44872;BME280;30602;51.060;17.226;2022-12-18T05:37:42;103543.05;;;-4.93;89.36
44872;BME280;30602;51.060;17.226;2022-12-18T05:41:05;103547.53;;;-4.88;89.15
44872;BME280;30602;51.060;17.226;2022-12-18T05:44:57;103548.30;;;-4.93;88.91
44872;BME280;30602;51.060;17.226;2022-12-18T05:48:38;103550.83;;;-4.83;88.54
44872;BME280;30602;51.060;17.226;2022-12-18T05:52:19;103543.80;;;-4.94;88.29
44872;BME280;30602;51.060;17.226;2022-12-18T05:55:49;103560.51;;;-4.93;88.09
44872;BME280;30602;51.060;17.226;2022-12-18T05:59:09;103570.90;;;-4.86;88.23
44872;BME280;30602;51.060;17.226;2022-12-18T06:02:20;103581.38;;;-4.92;88.20
44872;BME280;30602;51.060;17.226;2022-12-18T06:05:40;103584.98;;;-5.01;88.41
44872;BME280;30602;51.060;17.226;2022-12-18T06:09:24;103594.18;;;-5.03;88.58
44872;BME280;30602;51.060;17.226;2022-12-18T06:12:46;103591.34;;;-5.02;88.91
44872;BME280;30602;51.060;17.226;2022-12-18T06:19:57;103594.23;;;-5.00;88.62
44872;BME280;30602;51.060;17.226;2022-12-18T06:23:06;103600.16;;;-4.97;88.85
44872;BME280;30602;51.060;17.226;2022-12-18T06:26:20;103603.42;;;-4.93;88.41
44872;BME280;30602;51.060;17.226;2022-12-18T06:29:28;103606.07;;;-4.97;88.34
44872;BME280;30602;51.060;17.226;2022-12-18T06:33:00;103607.16;;;-5.04;88.38
44872;BME280;30602;51.060;17.226;2022-12-18T06:36:42;103620.09;;;-5.09;88.75
44872;BME280;30602;51.060;17.226;2022-12-18T06:40:11;103621.66;;;-5.08;89.16
44872;BME280;30602;51.060;17.226;2022-12-18T06:43:47;103627.19;;;-5.02;88.67
44872;BME280;30602;51.060;17.226;2022-12-18T06:47:20;103634.59;;;-5.11;88.59
44872;BME280;30602;51.060;17.226;2022-12-18T06:50:33;103631.14;;;-5.11;89.31
44872;BME280;30602;51.060;17.226;2022-12-18T06:54:03;103645.14;;;-5.07;88.92
44872;BME280;30602;51.060;17.226;2022-12-18T06:57:47;103644.21;;;-4.88;88.78
44872;BME280;30602;51.060;17.226;2022-12-18T07:01:22;103639.04;;;-4.97;88.18
44872;BME280;30602;51.060;17.226;2022-12-18T07:04:50;103650.93;;;-4.89;87.77
44872;BME280;30602;51.060;17.226;2022-12-18T07:08:03;103659.63;;;-4.93;87.87
44872;BME280;30602;51.060;17.226;2022-12-18T07:11:33;103663.76;;;-4.94;87.77
44872;BME280;30602;51.060;17.226;2022-12-18T07:15:12;103670.16;;;-5.05;88.20
44872;BME280;30602;51.060;17.226;2022-12-18T07:22:35;103674.28;;;-5.02;87.53
44872;BME280;30602;51.060;17.226;2022-12-18T07:26:16;103678.87;;;-4.93;88.04
44872;BME280;30602;51.060;17.226;2022-12-18T07:30:08;103681.73;;;-4.94;87.95
44872;BME280;30602;51.060;17.226;2022-12-18T07:34:14;103681.52;;;-4.88;88.24
44872;BME280;30602;51.060;17.226;2022-12-18T07:37:50;103683.64;;;-4.86;88.10
44872;BME280;30602;51.060;17.226;2022-12-18T07:41:17;103690.95;;;-5.06;88.07
44872;BME280;30602;51.060;17.226;2022-12-18T07:44:48;103695.88;;;-5.09;87.89
44872;BME280;30602;51.060;17.226;2022-12-18T07:47:59;103701.78;;;-5.04;88.45
44872;BME280;30602;51.060;17.226;2022-12-18T07:51:32;103706.12;;;-4.99;88.08
44872;BME280;30602;51.060;17.226;2022-12-18T07:54:44;103704.08;;;-4.97;87.70
44872;BME280;30602;51.060;17.226;2022-12-18T07:58:40;103702.22;;;-5.04;88.13
44872;BME280;30602;51.060;17.226;2022-12-18T08:02:31;103706.27;;;-4.97;88.37
44872;BME280;30602;51.060;17.226;2022-12-18T08:06:04;103708.38;;;-4.92;88.08
44872;BME280;30602;51.060;17.226;2022-12-18T08:09:53;103710.23;;;-4.88;87.64
44872;BME280;30602;51.060;17.226;2022-12-18T08:13:02;103716.08;;;-4.90;88.06
44872;BME280;30602;51.060;17.226;2022-12-18T08:16:31;103722.31;;;-4.93;87.85
44872;BME280;30602;51.060;17.226;2022-12-18T08:19:47;103727.55;;;-4.99;88.11
44872;BME280;30602;51.060;17.226;2022-12-18T08:23:52;103736.59;;;-4.90;87.99
44872;BME280;30602;51.060;17.226;2022-12-18T08:27:07;103747.12;;;-4.95;87.62
44872;BME280;30602;51.060;17.226;2022-12-18T08:30:39;103748.98;;;-4.91;87.44
44872;BME280;30602;51.060;17.226;2022-12-18T08:33:50;103753.02;;;-5.04;87.74
44872;BME280;30602;51.060;17.226;2022-12-18T08:37:21;103749.35;;;-5.00;87.50
44872;BME280;30602;51.060;17.226;2022-12-18T08:40:36;103732.77;;;-5.06;87.16
44872;BME280;30602;51.060;17.226;2022-12-18T08:43:54;103756.98;;;-4.92;87.15
44872;BME280;30602;51.060;17.226;2022-12-18T08:47:15;103767.54;;;-4.88;87.32
44872;BME280;30602;51.060;17.226;2022-12-18T08:50:23;103770.97;;;-4.86;87.25
44872;BME280;30602;51.060;17.226;2022-12-18T08:53:57;103774.01;;;-4.95;87.08
44872;BME280;30602;51.060;17.226;2022-12-18T08:57:49;103782.96;;;-5.00;87.51
44872;BME280;30602;51.060;17.226;2022-12-18T09:01:41;103777.91;;;-4.97;87.45
44872;BME280;30602;51.060;17.226;2022-12-18T09:05:17;103762.32;;;-4.91;87.41
44872;BME280;30602;51.060;17.226;2022-12-18T09:09:00;103761.31;;;-4.70;86.91
44872;BME280;30602;51.060;17.226;2022-12-18T09:12:26;103767.17;;;-4.69;86.58
44872;BME280;30602;51.060;17.226;2022-12-18T09:19:37;103756.20;;;-4.57;86.51
44872;BME280;30602;51.060;17.226;2022-12-18T09:22:49;103750.41;;;-4.60;85.88
44872;BME280;30602;51.060;17.226;2022-12-18T09:26:19;103743.84;;;-4.62;85.97
44872;BME280;30602;51.060;17.226;2022-12-18T09:30:03;103724.40;;;-4.66;86.06
44872;BME280;30602;51.060;17.226;2022-12-18T09:33:36;103724.65;;;-4.63;86.39
44872;BME280;30602;51.060;17.226;2022-12-18T09:37:31;103710.78;;;-4.77;86.14
44872;BME280;30602;51.060;17.226;2022-12-18T09:41:15;103696.30;;;-4.58;85.86
44872;BME280;30602;51.060;17.226;2022-12-18T09:44:28;103702.69;;;-4.57;84.94
44872;BME280;30602;51.060;17.226;2022-12-18T09:47:38;103694.99;;;-4.55;85.16
44872;BME280;30602;51.060;17.226;2022-12-18T09:51:15;103677.80;;;-4.65;85.09
44872;BME280;30602;51.060;17.226;2022-12-18T09:55:09;103696.57;;;-4.45;85.65
44872;BME280;30602;51.060;17.226;2022-12-18T10:02:18;103705.79;;;-4.46;84.71
44872;BME280;30602;51.060;17.226;2022-12-18T10:09:02;103702.75;;;-4.66;85.62
44872;BME280;30602;51.060;17.226;2022-12-18T10:20:38;103711.30;;;-4.63;85.89
44872;BME280;30602;51.060;17.226;2022-12-18T10:27:43;103716.31;;;-4.45;85.52
44872;BME280;30602;51.060;17.226;2022-12-18T10:31:02;103719.91;;;-4.39;85.22
44872;BME280;30602;51.060;17.226;2022-12-18T10:34:46;103717.87;;;-4.40;85.10
44872;BME280;30602;51.060;17.226;2022-12-18T10:38:27;103712.13;;;-4.37;84.86
44872;BME280;30602;51.060;17.226;2022-12-18T10:42:17;103703.84;;;-4.40;84.69
44872;BME280;30602;51.060;17.226;2022-12-18T10:49:32;103711.76;;;-4.44;84.77
44872;BME280;30602;51.060;17.226;2022-12-18T10:53:26;103696.91;;;-4.53;84.38
44872;BME280;30602;51.060;17.226;2022-12-18T10:57:17;103713.16;;;-4.42;84.64
44872;BME280;30602;51.060;17.226;2022-12-18T11:01:23;103710.13;;;-4.43;84.61
44872;BME280;30602;51.060;17.226;2022-12-18T11:04:58;103713.22;;;-4.39;84.51
44872;BME280;30602;51.060;17.226;2022-12-18T11:08:27;103715.08;;;-4.45;84.63
44872;BME280;30602;51.060;17.226;2022-12-18T11:15:50;103719.13;;;-4.52;85.23
44872;BME280;30602;51.060;17.226;2022-12-18T11:23:50;103724.80;;;-4.46;85.72
44872;BME280;30602;51.060;17.226;2022-12-18T11:27:34;103729.41;;;-4.37;85.41
44872;BME280;30602;51.060;17.226;2022-12-18T11:31:22;103734.20;;;-4.34;85.57
44872;BME280;30602;51.060;17.226;2022-12-18T11:34:42;103733.88;;;-4.21;85.14
44872;BME280;30602;51.060;17.226;2022-12-18T11:41:59;103733.91;;;-4.15;85.61
44872;BME280;30602;51.060;17.226;2022-12-18T11:50:01;103732.72;;;-4.19;84.02
44872;BME280;30602;51.060;17.226;2022-12-18T11:53:43;103729.08;;;-4.23;83.95
44872;BME280;30602;51.060;17.226;2022-12-18T11:57:37;103719.88;;;-4.23;84.62
44872;BME280;30602;51.060;17.226;2022-12-18T12:39:40;103694.05;;;-4.25;82.78
44872;BME280;30602;51.060;17.226;2022-12-18T12:47:32;103708.12;;;-4.41;82.94
44872;BME280;30602;51.060;17.226;2022-12-18T12:51:43;103702.86;;;-4.40;83.24
44872;BME280;30602;51.060;17.226;2022-12-18T12:55:00;103704.23;;;-4.40;83.38
44872;BME280;30602;51.060;17.226;2022-12-18T13:09:34;103711.09;;;-4.35;83.43
44872;BME280;30602;51.060;17.226;2022-12-18T13:13:19;103710.00;;;-4.37;82.98
44872;BME280;30602;51.060;17.226;2022-12-18T13:20:49;103712.45;;;-4.50;83.54
44872;BME280;30602;51.060;17.226;2022-12-18T13:24:31;103614.55;;;-5.13;83.83
44872;BME280;30602;51.060;17.226;2022-12-18T13:36:33;103701.66;;;-4.66;84.61
44872;BME280;30602;51.060;17.226;2022-12-18T13:44:53;103713.85;;;-4.76;84.45
44872;BME280;30602;51.060;17.226;2022-12-18T13:48:34;103728.54;;;-4.79;84.43
44872;BME280;30602;51.060;17.226;2022-12-18T13:55:32;103715.23;;;-4.95;84.61
44872;BME280;30602;51.060;17.226;2022-12-18T13:59:45;103737.05;;;-4.98;84.62
44872;BME280;30602;51.060;17.226;2022-12-18T14:04:20;103738.44;;;-5.02;85.05
44872;BME280;30602;51.060;17.226;2022-12-18T14:07:39;103735.39;;;-5.05;84.93
44872;BME280;30602;51.060;17.226;2022-12-18T14:11:22;103740.25;;;-5.09;85.32
44872;BME280;30602;51.060;17.226;2022-12-18T14:18:57;103753.27;;;-5.25;85.52
44872;BME280;30602;51.060;17.226;2022-12-18T14:22:51;103759.52;;;-5.28;85.75
44872;BME280;30602;51.060;17.226;2022-12-18T14:25:57;103768.13;;;-5.09;86.33
44872;BME280;30602;51.060;17.226;2022-12-18T14:29:42;103750.85;;;-5.30;86.13
44872;BME280;30602;51.060;17.226;2022-12-18T14:33:43;103765.06;;;-5.28;86.03
44872;BME280;30602;51.060;17.226;2022-12-18T14:37:41;103775.30;;;-5.30;85.99
44872;BME280;30602;51.060;17.226;2022-12-18T14:42:03;103791.95;;;-5.32;86.54
44872;BME280;30602;51.060;17.226;2022-12-18T14:50:00;103781.63;;;-5.17;87.90
44872;BME280;30602;51.060;17.226;2022-12-18T14:53:36;103786.54;;;-5.14;87.79
44872;BME280;30602;51.060;17.226;2022-12-18T14:57:24;103792.04;;;-5.18;87.48
44872;BME280;30602;51.060;17.226;2022-12-18T15:01:22;103791.89;;;-5.22;87.08
44872;BME280;30602;51.060;17.226;2022-12-18T15:04:45;103784.39;;;-5.10;89.57
44872;BME280;30602;51.060;17.226;2022-12-18T15:07:57;103788.91;;;-5.11;89.58
44872;BME280;30602;51.060;17.226;2022-12-18T15:11:45;103791.53;;;-5.01;89.46
44872;BME280;30602;51.060;17.226;2022-12-18T15:19:42;103775.99;;;-5.16;88.46
44872;BME280;30602;51.060;17.226;2022-12-18T15:22:53;103763.38;;;-5.27;87.69
44872;BME280;30602;51.060;17.226;2022-12-18T15:26:39;103777.08;;;-5.29;87.75
44872;BME280;30602;51.060;17.226;2022-12-18T15:34:19;103777.62;;;-5.34;87.24
44872;BME280;30602;51.060;17.226;2022-12-18T15:38:11;103758.62;;;-5.50;87.58
44872;BME280;30602;51.060;17.226;2022-12-18T15:46:13;103778.92;;;-5.22;88.92
44872;BME280;30602;51.060;17.226;2022-12-18T15:50:04;103775.00;;;-5.14;89.14
44872;BME280;30602;51.060;17.226;2022-12-18T15:53:42;103763.24;;;-5.12;88.10
44872;BME280;30602;51.060;17.226;2022-12-18T15:56:54;103756.29;;;-5.31;87.39
44872;BME280;30602;51.060;17.226;2022-12-18T16:01:06;103746.22;;;-5.39;87.37
44872;BME280;30602;51.060;17.226;2022-12-18T16:04:23;103738.02;;;-5.39;87.10
44872;BME280;30602;51.060;17.226;2022-12-18T16:08:06;103739.58;;;-5.45;86.72
44872;BME280;30602;51.060;17.226;2022-12-18T16:11:28;103735.79;;;-5.52;86.47
44872;BME280;30602;51.060;17.226;2022-12-18T16:14:47;103731.34;;;-5.75;86.64
44872;BME280;30602;51.060;17.226;2022-12-18T16:17:56;103736.41;;;-5.76;86.81
44872;BME280;30602;51.060;17.226;2022-12-18T16:21:08;103729.38;;;-5.85;86.87
44872;BME280;30602;51.060;17.226;2022-12-18T16:24:22;103729.05;;;-5.88;86.89
44872;BME280;30602;51.060;17.226;2022-12-18T16:27:51;103734.96;;;-5.97;86.92
44872;BME280;30602;51.060;17.226;2022-12-18T16:31:56;103729.37;;;-5.97;87.23
44872;BME280;30602;51.060;17.226;2022-12-18T16:35:31;103731.48;;;-6.12;86.78
44872;BME280;30602;51.060;17.226;2022-12-18T16:39:17;103729.34;;;-6.23;86.99
44872;BME280;30602;51.060;17.226;2022-12-18T16:43:37;103731.40;;;-6.39;86.41
44872;BME280;30602;51.060;17.226;2022-12-18T16:47:40;103718.18;;;-6.82;85.13
44872;BME280;30602;51.060;17.226;2022-12-18T16:51:16;103737.67;;;-7.16;83.48
44872;BME280;30602;51.060;17.226;2022-12-18T16:55:27;103720.85;;;-7.89;82.70
44872;BME280;30602;51.060;17.226;2022-12-18T16:59:00;103742.67;;;-8.13;83.14
44872;BME280;30602;51.060;17.226;2022-12-18T17:02:45;103749.16;;;-8.50;83.09
44872;BME280;30602;51.060;17.226;2022-12-18T17:06:20;103753.95;;;-8.81;83.21
44872;BME280;30602;51.060;17.226;2022-12-18T17:10:06;103752.78;;;-9.07;82.71
44872;BME280;30602;51.060;17.226;2022-12-18T17:13:16;103757.08;;;-9.37;81.52
44872;BME280;30602;51.060;17.226;2022-12-18T17:17:04;103764.87;;;-9.71;81.74
44872;BME280;30602;51.060;17.226;2022-12-18T17:21:03;103774.31;;;-9.75;82.50
44872;BME280;30602;51.060;17.226;2022-12-18T17:24:21;103744.27;;;-9.97;83.04
44872;BME280;30602;51.060;17.226;2022-12-18T17:27:54;103740.77;;;-10.26;82.67
44872;BME280;30602;51.060;17.226;2022-12-18T17:31:14;103757.75;;;-10.21;82.63
44872;BME280;30602;51.060;17.226;2022-12-18T17:34:34;103759.13;;;-10.42;82.77
44872;BME280;30602;51.060;17.226;2022-12-18T17:38:28;103763.32;;;-10.65;82.24
44872;BME280;30602;51.060;17.226;2022-12-18T17:42:33;103761.06;;;-10.81;82.26
44872;BME280;30602;51.060;17.226;2022-12-18T17:46:04;103777.21;;;-10.84;82.49
44872;BME280;30602;51.060;17.226;2022-12-18T17:50:17;103781.38;;;-10.80;83.90
44872;BME280;30602;51.060;17.226;2022-12-18T17:54:06;103760.42;;;-10.95;83.57
44872;BME280;30602;51.060;17.226;2022-12-18T17:57:46;103759.20;;;-11.27;81.87
44872;BME280;30602;51.060;17.226;2022-12-18T18:01:24;103761.15;;;-11.38;81.08
44872;BME280;30602;51.060;17.226;2022-12-18T18:04:43;103759.34;;;-11.36;82.65
44872;BME280;30602;51.060;17.226;2022-12-18T18:08:06;103766.77;;;-11.14;83.19
44872;BME280;30602;51.060;17.226;2022-12-18T18:11:40;103766.49;;;-11.13;83.45
44872;BME280;30602;51.060;17.226;2022-12-18T18:16:09;103774.45;;;-11.13;82.95
44872;BME280;30602;51.060;17.226;2022-12-18T18:19:45;103776.59;;;-11.15;82.61
44872;BME280;30602;51.060;17.226;2022-12-18T18:23:20;103780.20;;;-11.19;83.38
44872;BME280;30602;51.060;17.226;2022-12-18T18:26:59;103776.13;;;-11.13;83.48
44872;BME280;30602;51.060;17.226;2022-12-18T18:30:38;103767.34;;;-11.08;83.41
44872;BME280;30602;51.060;17.226;2022-12-18T18:34:16;103763.13;;;-11.07;83.72
44872;BME280;30602;51.060;17.226;2022-12-18T18:37:47;103745.16;;;-11.27;83.10
44872;BME280;30602;51.060;17.226;2022-12-18T18:41:41;103754.14;;;-11.49;82.62
44872;BME280;30602;51.060;17.226;2022-12-18T18:45:08;103746.86;;;-11.66;82.70
44872;BME280;30602;51.060;17.226;2022-12-18T18:48:38;103743.93;;;-11.62;82.19
44872;BME280;30602;51.060;17.226;2022-12-18T18:55:47;103744.32;;;-11.41;82.35
44872;BME280;30602;51.060;17.226;2022-12-18T18:59:29;103748.56;;;-11.39;82.48
44872;BME280;30602;51.060;17.226;2022-12-18T19:02:55;103757.36;;;-11.44;82.29
44872;BME280;30602;51.060;17.226;2022-12-18T19:06:07;103740.33;;;-11.57;82.39
44872;BME280;30602;51.060;17.226;2022-12-18T19:09:27;103760.63;;;-11.49;82.63
44872;BME280;30602;51.060;17.226;2022-12-18T19:12:50;103749.23;;;-11.54;82.67
44872;BME280;30602;51.060;17.226;2022-12-18T19:16:45;103745.31;;;-11.32;82.68
44872;BME280;30602;51.060;17.226;2022-12-18T19:20:32;103753.73;;;-11.07;83.66
44872;BME280;30602;51.060;17.226;2022-12-18T19:25:02;103745.69;;;-10.45;86.83
44872;BME280;30602;51.060;17.226;2022-12-18T19:28:49;103744.99;;;-9.91;88.46
44872;BME280;30602;51.060;17.226;2022-12-18T19:32:10;103711.70;;;-9.93;88.68
44872;BME280;30602;51.060;17.226;2022-12-18T19:35:59;103750.66;;;-9.36;89.64
44872;BME280;30602;51.060;17.226;2022-12-18T19:39:34;103746.20;;;-8.96;90.66
44872;BME280;30602;51.060;17.226;2022-12-18T19:43:07;103738.97;;;-8.78;90.80
44872;BME280;30602;51.060;17.226;2022-12-18T19:46:35;103728.14;;;-8.58;90.91
44872;BME280;30602;51.060;17.226;2022-12-18T19:51:08;103694.42;;;-8.56;90.55
44872;BME280;30602;51.060;17.226;2022-12-18T19:54:37;103715.17;;;-8.33;90.09
44872;BME280;30602;51.060;17.226;2022-12-18T19:58:02;103711.52;;;-8.26;89.70
44872;BME280;30602;51.060;17.226;2022-12-18T20:02:12;103705.32;;;-8.22;89.71
44872;BME280;30602;51.060;17.226;2022-12-18T20:10:07;103703.52;;;-8.09;89.01
44872;BME280;30602;51.060;17.226;2022-12-18T20:14:17;103694.41;;;-8.07;88.94
44872;BME280;30602;51.060;17.226;2022-12-18T20:17:57;103680.29;;;-8.13;88.77
44872;BME280;30602;51.060;17.226;2022-12-18T20:21:24;103698.77;;;-8.01;88.56
44872;BME280;30602;51.060;17.226;2022-12-18T20:24:39;103693.23;;;-8.03;88.57
44872;BME280;30602;51.060;17.226;2022-12-18T20:27:55;103696.77;;;-8.05;88.54
44872;BME280;30602;51.060;17.226;2022-12-18T20:31:44;103691.69;;;-8.07;88.46
44872;BME280;30602;51.060;17.226;2022-12-18T20:35:05;103686.94;;;-8.09;88.34
44872;BME280;30602;51.060;17.226;2022-12-18T20:38:43;103689.28;;;-8.10;88.33
44872;BME280;30602;51.060;17.226;2022-12-18T20:42:05;103689.84;;;-8.10;88.10
44872;BME280;30602;51.060;17.226;2022-12-18T20:45:35;103681.58;;;-8.16;87.89
44872;BME280;30602;51.060;17.226;2022-12-18T20:49:53;103678.89;;;-8.15;87.90
44872;BME280;30602;51.060;17.226;2022-12-18T20:53:36;103675.34;;;-8.14;87.45
44872;BME280;30602;51.060;17.226;2022-12-18T20:57:25;103695.49;;;-8.17;87.77
44872;BME280;30602;51.060;17.226;2022-12-18T21:01:07;103701.63;;;-8.20;87.63
44872;BME280;30602;51.060;17.226;2022-12-18T21:04:27;103700.11;;;-8.16;87.73
44872;BME280;30602;51.060;17.226;2022-12-18T21:07:56;103697.48;;;-8.16;87.53
44872;BME280;30602;51.060;17.226;2022-12-18T21:12:14;103697.70;;;-8.18;87.66
44872;BME280;30602;51.060;17.226;2022-12-18T21:16:43;103692.23;;;-8.17;87.18
44872;BME280;30602;51.060;17.226;2022-12-18T21:20:39;103692.02;;;-8.25;86.62
44872;BME280;30602;51.060;17.226;2022-12-18T21:24:15;103691.73;;;-8.29;86.65
44872;BME280;30602;51.060;17.226;2022-12-18T21:27:29;103697.59;;;-8.21;87.34
44872;BME280;30602;51.060;17.226;2022-12-18T21:31:30;103703.53;;;-8.22;87.53
44872;BME280;30602;51.060;17.226;2022-12-18T21:35:11;103697.73;;;-8.22;87.46
44872;BME280;30602;51.060;17.226;2022-12-18T21:38:23;103702.13;;;-8.26;87.44
44872;BME280;30602;51.060;17.226;2022-12-18T21:42:00;103703.71;;;-8.36;87.76
44872;BME280;30602;51.060;17.226;2022-12-18T21:46:00;103688.52;;;-8.42;87.44